sensor_id;sensor_type;location;lat;lon;timestamp;temperature;humidity
31391;DHT22;18022;45.492;11.548;2022-07-22T00:00:01;24.50;92.00
31391;DHT22;18022;45.492;11.548;2022-07-22T00:02:27;24.40;92.20
31391;DHT22;18022;45.492;11.548;2022-07-22T00:04:53;24.40;91.90
31391;DHT22;18022;45.492;11.548;2022-07-22T00:07:18;24.40;91.60
31391;DHT22;18022;45.492;11.548;2022-07-22T00:09:44;24.40;91.50
31391;DHT22;18022;45.492;11.548;2022-07-22T00:12:10;24.30;91.20
31391;DHT22;18022;45.492;11.548;2022-07-22T00:14:35;24.20;91.30
31391;DHT22;18022;45.492;11.548;2022-07-22T00:17:01;24.10;91.60
31391;DHT22;18022;45.492;11.548;2022-07-22T00:19:27;24.00;91.30
31391;DHT22;18022;45.492;11.548;2022-07-22T00:21:53;24.00;90.80
31391;DHT22;18022;45.492;11.548;2022-07-22T00:24:19;24.00;90.90
31391;DHT22;18022;45.492;11.548;2022-07-22T00:26:44;24.00;91.20
31391;DHT22;18022;45.492;11.548;2022-07-22T00:29:10;24.00;91.40
31391;DHT22;18022;45.492;11.548;2022-07-22T00:31:36;23.90;91.20
31391;DHT22;18022;45.492;11.548;2022-07-22T00:34:02;24.00;91.40
31391;DHT22;18022;45.492;11.548;2022-07-22T00:36:29;24.00;91.10
31391;DHT22;18022;45.492;11.548;2022-07-22T00:38:55;24.00;91.10
31391;DHT22;18022;45.492;11.548;2022-07-22T00:41:21;24.10;91.20
31391;DHT22;18022;45.492;11.548;2022-07-22T00:43:58;24.00;91.50
31391;DHT22;18022;45.492;11.548;2022-07-22T00:46:24;23.90;91.80
31391;DHT22;18022;45.492;11.548;2022-07-22T00:48:50;23.90;91.80
31391;DHT22;18022;45.492;11.548;2022-07-22T00:51:17;23.90;91.80
31391;DHT22;18022;45.492;11.548;2022-07-22T00:53:44;23.90;91.80
31391;DHT22;18022;45.492;11.548;2022-07-22T00:56:10;23.80;91.80
31391;DHT22;18022;45.492;11.548;2022-07-22T00:58:36;24.10;91.70
31391;DHT22;18022;45.492;11.548;2022-07-22T01:01:02;24.30;91.60
31391;DHT22;18022;45.492;11.548;2022-07-22T01:03:28;24.30;91.80
31391;DHT22;18022;45.492;11.548;2022-07-22T01:05:54;24.30;91.70
31391;DHT22;18022;45.492;11.548;2022-07-22T01:08:20;24.20;91.90
31391;DHT22;18022;45.492;11.548;2022-07-22T01:10:45;24.00;91.80
31391;DHT22;18022;45.492;11.548;2022-07-22T01:13:11;23.80;92.20
31391;DHT22;18022;45.492;11.548;2022-07-22T01:15:37;23.70;92.40
31391;DHT22;18022;45.492;11.548;2022-07-22T01:18:03;23.70;92.00
31391;DHT22;18022;45.492;11.548;2022-07-22T01:20:29;23.60;92.30
31391;DHT22;18022;45.492;11.548;2022-07-22T01:22:55;23.60;92.30
31391;DHT22;18022;45.492;11.548;2022-07-22T01:25:21;23.70;92.10
31391;DHT22;18022;45.492;11.548;2022-07-22T01:27:46;23.80;91.80
31391;DHT22;18022;45.492;11.548;2022-07-22T01:30:12;23.80;92.20
31391;DHT22;18022;45.492;11.548;2022-07-22T01:32:38;23.60;92.50
31391;DHT22;18022;45.492;11.548;2022-07-22T01:35:04;23.30;93.10
31391;DHT22;18022;45.492;11.548;2022-07-22T01:37:32;23.20;93.60
31391;DHT22;18022;45.492;11.548;2022-07-22T01:39:58;22.90;94.10
31391;DHT22;18022;45.492;11.548;2022-07-22T01:42:24;23.00;94.20
31391;DHT22;18022;45.492;11.548;2022-07-22T01:44:50;23.10;94.20
31391;DHT22;18022;45.492;11.548;2022-07-22T01:47:16;23.20;93.80
31391;DHT22;18022;45.492;11.548;2022-07-22T01:49:42;23.10;93.60
31391;DHT22;18022;45.492;11.548;2022-07-22T01:52:07;23.20;93.50
31391;DHT22;18022;45.492;11.548;2022-07-22T01:54:33;23.40;93.40
31391;DHT22;18022;45.492;11.548;2022-07-22T01:56:59;23.30;93.50
31391;DHT22;18022;45.492;11.548;2022-07-22T01:59:25;23.40;93.50
31391;DHT22;18022;45.492;11.548;2022-07-22T02:01:51;23.40;93.40
31391;DHT22;18022;45.492;11.548;2022-07-22T02:04:17;23.30;93.50
31391;DHT22;18022;45.492;11.548;2022-07-22T02:06:42;23.40;93.50
31391;DHT22;18022;45.492;11.548;2022-07-22T02:09:08;23.30;93.20
31391;DHT22;18022;45.492;11.548;2022-07-22T02:11:34;23.30;93.40
31391;DHT22;18022;45.492;11.548;2022-07-22T02:13:59;23.20;93.80
31391;DHT22;18022;45.492;11.548;2022-07-22T02:16:25;23.10;94.10
31391;DHT22;18022;45.492;11.548;2022-07-22T02:18:51;23.10;94.20
31391;DHT22;18022;45.492;11.548;2022-07-22T02:21:17;23.00;94.50
31391;DHT22;18022;45.492;11.548;2022-07-22T02:23:43;22.90;95.00
31391;DHT22;18022;45.492;11.548;2022-07-22T02:26:09;22.80;95.30
31391;DHT22;18022;45.492;11.548;2022-07-22T02:28:35;22.60;95.30
31391;DHT22;18022;45.492;11.548;2022-07-22T02:31:01;22.60;95.70
31391;DHT22;18022;45.492;11.548;2022-07-22T02:33:26;22.70;95.70
31391;DHT22;18022;45.492;11.548;2022-07-22T02:35:52;22.80;95.70
31391;DHT22;18022;45.492;11.548;2022-07-22T02:38:18;22.80;95.70
31391;DHT22;18022;45.492;11.548;2022-07-22T02:40:44;22.90;95.90
31391;DHT22;18022;45.492;11.548;2022-07-22T02:43:09;23.10;96.00
31391;DHT22;18022;45.492;11.548;2022-07-22T02:45:35;23.00;95.80
31391;DHT22;18022;45.492;11.548;2022-07-22T02:48:01;23.00;95.70
31391;DHT22;18022;45.492;11.548;2022-07-22T02:50:26;22.80;95.80
31391;DHT22;18022;45.492;11.548;2022-07-22T02:52:52;22.80;95.80
31391;DHT22;18022;45.492;11.548;2022-07-22T02:55:18;22.90;95.80
31391;DHT22;18022;45.492;11.548;2022-07-22T02:57:45;22.80;95.90
31391;DHT22;18022;45.492;11.548;2022-07-22T03:00:12;22.60;96.20
31391;DHT22;18022;45.492;11.548;2022-07-22T03:02:38;22.60;96.50
31391;DHT22;18022;45.492;11.548;2022-07-22T03:05:05;22.70;96.40
31391;DHT22;18022;45.492;11.548;2022-07-22T03:07:31;22.60;96.50
31391;DHT22;18022;45.492;11.548;2022-07-22T03:09:57;22.50;96.70
31391;DHT22;18022;45.492;11.548;2022-07-22T03:12:23;22.30;97.00
31391;DHT22;18022;45.492;11.548;2022-07-22T03:14:49;22.20;97.60
31391;DHT22;18022;45.492;11.548;2022-07-22T03:17:15;22.00;98.00
31391;DHT22;18022;45.492;11.548;2022-07-22T03:19:41;22.00;98.30
31391;DHT22;18022;45.492;11.548;2022-07-22T03:22:06;22.00;98.60
31391;DHT22;18022;45.492;11.548;2022-07-22T03:24:32;22.20;98.40
31391;DHT22;18022;45.492;11.548;2022-07-22T03:26:58;22.20;98.40
31391;DHT22;18022;45.492;11.548;2022-07-22T03:29:23;22.00;98.40
31391;DHT22;18022;45.492;11.548;2022-07-22T03:31:49;22.10;98.60
31391;DHT22;18022;45.492;11.548;2022-07-22T03:34:15;22.10;98.70
31391;DHT22;18022;45.492;11.548;2022-07-22T03:36:41;22.00;98.50
31391;DHT22;18022;45.492;11.548;2022-07-22T03:39:07;22.00;98.80
31391;DHT22;18022;45.492;11.548;2022-07-22T03:41:32;22.00;99.00
31391;DHT22;18022;45.492;11.548;2022-07-22T03:43:58;22.10;98.90
31391;DHT22;18022;45.492;11.548;2022-07-22T03:46:24;22.10;98.80
31391;DHT22;18022;45.492;11.548;2022-07-22T03:48:51;22.10;98.80
31391;DHT22;18022;45.492;11.548;2022-07-22T03:51:16;22.10;98.90
31391;DHT22;18022;45.492;11.548;2022-07-22T03:53:42;22.10;98.80
31391;DHT22;18022;45.492;11.548;2022-07-22T03:56:08;22.00;99.00
31391;DHT22;18022;45.492;11.548;2022-07-22T03:58:33;22.20;98.90
31391;DHT22;18022;45.492;11.548;2022-07-22T04:00:59;22.30;98.70
31391;DHT22;18022;45.492;11.548;2022-07-22T04:03:25;22.30;98.60
31391;DHT22;18022;45.492;11.548;2022-07-22T04:05:51;22.40;98.50
31391;DHT22;18022;45.492;11.548;2022-07-22T04:08:17;22.60;98.50
31391;DHT22;18022;45.492;11.548;2022-07-22T04:10:43;22.70;98.30
31391;DHT22;18022;45.492;11.548;2022-07-22T04:13:09;22.80;98.30
31391;DHT22;18022;45.492;11.548;2022-07-22T04:15:35;22.70;98.10
31391;DHT22;18022;45.492;11.548;2022-07-22T04:18:01;22.70;98.10
31391;DHT22;18022;45.492;11.548;2022-07-22T04:20:27;22.60;98.20
31391;DHT22;18022;45.492;11.548;2022-07-22T04:22:53;22.60;98.30
31391;DHT22;18022;45.492;11.548;2022-07-22T04:25:19;22.80;98.20
31391;DHT22;18022;45.492;11.548;2022-07-22T04:27:45;22.70;98.30
31391;DHT22;18022;45.492;11.548;2022-07-22T04:30:11;22.60;98.60
31391;DHT22;18022;45.492;11.548;2022-07-22T04:32:37;22.40;98.60
31391;DHT22;18022;45.492;11.548;2022-07-22T04:35:03;22.40;98.80
31391;DHT22;18022;45.492;11.548;2022-07-22T04:37:30;22.40;98.80
31391;DHT22;18022;45.492;11.548;2022-07-22T04:39:56;22.40;99.00
31391;DHT22;18022;45.492;11.548;2022-07-22T04:42:22;22.60;98.80
31391;DHT22;18022;45.492;11.548;2022-07-22T04:44:47;22.50;98.90
31391;DHT22;18022;45.492;11.548;2022-07-22T04:47:13;22.50;99.00
31391;DHT22;18022;45.492;11.548;2022-07-22T04:49:39;22.50;98.90
31391;DHT22;18022;45.492;11.548;2022-07-22T04:52:05;22.50;99.30
31391;DHT22;18022;45.492;11.548;2022-07-22T04:54:30;22.40;99.60
31391;DHT22;18022;45.492;11.548;2022-07-22T04:56:56;22.40;99.90
31391;DHT22;18022;45.492;11.548;2022-07-22T04:59:22;22.50;99.90
31391;DHT22;18022;45.492;11.548;2022-07-22T05:01:47;22.60;99.90
31391;DHT22;18022;45.492;11.548;2022-07-22T05:04:13;22.60;99.70
31391;DHT22;18022;45.492;11.548;2022-07-22T05:06:39;22.70;99.90
31391;DHT22;18022;45.492;11.548;2022-07-22T05:09:05;22.80;99.90
31391;DHT22;18022;45.492;11.548;2022-07-22T05:11:30;22.80;99.70
31391;DHT22;18022;45.492;11.548;2022-07-22T05:13:56;22.80;99.70
31391;DHT22;18022;45.492;11.548;2022-07-22T05:16:22;22.90;99.80
31391;DHT22;18022;45.492;11.548;2022-07-22T05:18:48;23.00;99.70
31391;DHT22;18022;45.492;11.548;2022-07-22T05:21:13;23.10;99.40
31391;DHT22;18022;45.492;11.548;2022-07-22T05:23:39;23.20;99.40
31391;DHT22;18022;45.492;11.548;2022-07-22T05:26:05;23.20;99.00
31391;DHT22;18022;45.492;11.548;2022-07-22T05:28:31;23.30;99.10
31391;DHT22;18022;45.492;11.548;2022-07-22T05:30:56;23.40;99.30
31391;DHT22;18022;45.492;11.548;2022-07-22T05:33:22;23.50;99.50
31391;DHT22;18022;45.492;11.548;2022-07-22T05:35:48;23.70;99.30
31391;DHT22;18022;45.492;11.548;2022-07-22T05:38:13;23.80;99.40
31391;DHT22;18022;45.492;11.548;2022-07-22T05:40:39;24.00;99.50
31391;DHT22;18022;45.492;11.548;2022-07-22T05:43:05;24.00;99.30
31391;DHT22;18022;45.492;11.548;2022-07-22T05:45:31;24.10;99.50
31391;DHT22;18022;45.492;11.548;2022-07-22T05:47:56;24.20;99.90
31391;DHT22;18022;45.492;11.548;2022-07-22T05:50:22;24.20;99.60
31391;DHT22;18022;45.492;11.548;2022-07-22T05:52:48;24.30;99.50
31391;DHT22;18022;45.492;11.548;2022-07-22T05:55:14;24.30;99.20
31391;DHT22;18022;45.492;11.548;2022-07-22T05:57:39;24.40;98.90
31391;DHT22;18022;45.492;11.548;2022-07-22T06:00:06;24.60;98.40
31391;DHT22;18022;45.492;11.548;2022-07-22T06:02:32;24.70;98.80
31391;DHT22;18022;45.492;11.548;2022-07-22T06:04:57;24.80;99.20
31391;DHT22;18022;45.492;11.548;2022-07-22T06:07:26;24.80;99.30
31391;DHT22;18022;45.492;11.548;2022-07-22T06:09:52;25.00;99.20
31391;DHT22;18022;45.492;11.548;2022-07-22T06:12:17;25.10;98.40
31391;DHT22;18022;45.492;11.548;2022-07-22T06:14:43;25.20;98.30
31391;DHT22;18022;45.492;11.548;2022-07-22T06:17:09;25.30;97.90
31391;DHT22;18022;45.492;11.548;2022-07-22T06:19:35;25.40;97.40
31391;DHT22;18022;45.492;11.548;2022-07-22T06:22:01;25.40;97.10
31391;DHT22;18022;45.492;11.548;2022-07-22T06:24:26;25.50;97.30
31391;DHT22;18022;45.492;11.548;2022-07-22T06:26:52;25.60;97.10
31391;DHT22;18022;45.492;11.548;2022-07-22T06:29:18;25.70;97.60
31391;DHT22;18022;45.492;11.548;2022-07-22T06:31:44;25.80;97.90
31391;DHT22;18022;45.492;11.548;2022-07-22T06:34:10;25.80;98.40
31391;DHT22;18022;45.492;11.548;2022-07-22T06:36:35;25.90;98.60
31391;DHT22;18022;45.492;11.548;2022-07-22T06:39:02;25.90;99.20
31391;DHT22;18022;45.492;11.548;2022-07-22T06:41:27;26.00;99.70
31391;DHT22;18022;45.492;11.548;2022-07-22T06:43:53;26.10;99.60
31391;DHT22;18022;45.492;11.548;2022-07-22T06:46:19;26.20;99.30
31391;DHT22;18022;45.492;11.548;2022-07-22T06:48:45;26.30;98.80
31391;DHT22;18022;45.492;11.548;2022-07-22T06:51:10;26.30;97.20
31391;DHT22;18022;45.492;11.548;2022-07-22T06:53:36;26.40;96.30
31391;DHT22;18022;45.492;11.548;2022-07-22T06:56:03;26.60;96.60
31391;DHT22;18022;45.492;11.548;2022-07-22T06:58:28;26.60;96.60
31391;DHT22;18022;45.492;11.548;2022-07-22T07:00:57;26.70;96.40
31391;DHT22;18022;45.492;11.548;2022-07-22T07:03:26;26.80;96.40
31391;DHT22;18022;45.492;11.548;2022-07-22T07:05:52;26.80;96.90
31391;DHT22;18022;45.492;11.548;2022-07-22T07:08:18;26.90;97.90
31391;DHT22;18022;45.492;11.548;2022-07-22T07:10:44;27.10;98.80
31391;DHT22;18022;45.492;11.548;2022-07-22T07:13:10;27.10;97.90
31391;DHT22;18022;45.492;11.548;2022-07-22T07:15:35;27.20;98.10
31391;DHT22;18022;45.492;11.548;2022-07-22T07:18:01;27.30;98.00
31391;DHT22;18022;45.492;11.548;2022-07-22T07:20:27;27.30;98.20
31391;DHT22;18022;45.492;11.548;2022-07-22T07:22:53;27.40;98.30
31391;DHT22;18022;45.492;11.548;2022-07-22T07:25:19;27.50;98.50
31391;DHT22;18022;45.492;11.548;2022-07-22T07:27:45;27.60;97.80
31391;DHT22;18022;45.492;11.548;2022-07-22T07:30:11;27.70;97.40
31391;DHT22;18022;45.492;11.548;2022-07-22T07:32:38;27.80;97.70
31391;DHT22;18022;45.492;11.548;2022-07-22T07:35:05;27.90;97.00
31391;DHT22;18022;45.492;11.548;2022-07-22T07:37:31;28.00;96.70
31391;DHT22;18022;45.492;11.548;2022-07-22T07:39:57;28.00;97.40
31391;DHT22;18022;45.492;11.548;2022-07-22T07:42:23;28.20;96.60
31391;DHT22;18022;45.492;11.548;2022-07-22T07:44:49;28.50;93.50
31391;DHT22;18022;45.492;11.548;2022-07-22T07:47:15;28.60;93.80
31391;DHT22;18022;45.492;11.548;2022-07-22T07:49:47;28.80;93.70
31391;DHT22;18022;45.492;11.548;2022-07-22T07:52:13;28.90;94.30
31391;DHT22;18022;45.492;11.548;2022-07-22T07:54:40;29.00;94.20
31391;DHT22;18022;45.492;11.548;2022-07-22T07:57:07;29.10;94.70
31391;DHT22;18022;45.492;11.548;2022-07-22T07:59:32;29.20;92.50
31391;DHT22;18022;45.492;11.548;2022-07-22T08:01:58;29.40;92.10
31391;DHT22;18022;45.492;11.548;2022-07-22T08:04:25;29.50;89.20
31391;DHT22;18022;45.492;11.548;2022-07-22T08:06:50;29.60;89.70
31391;DHT22;18022;45.492;11.548;2022-07-22T08:09:16;29.70;90.00
31391;DHT22;18022;45.492;11.548;2022-07-22T08:11:42;29.70;87.30
31391;DHT22;18022;45.492;11.548;2022-07-22T08:14:07;29.80;84.80
31391;DHT22;18022;45.492;11.548;2022-07-22T08:16:33;30.00;87.10
31391;DHT22;18022;45.492;11.548;2022-07-22T08:18:59;30.10;85.60
31391;DHT22;18022;45.492;11.548;2022-07-22T08:21:24;30.20;87.50
31391;DHT22;18022;45.492;11.548;2022-07-22T08:23:51;30.30;85.30
31391;DHT22;18022;45.492;11.548;2022-07-22T08:26:18;30.20;85.60
31391;DHT22;18022;45.492;11.548;2022-07-22T08:28:44;30.30;84.50
31391;DHT22;18022;45.492;11.548;2022-07-22T08:31:09;30.30;85.40
31391;DHT22;18022;45.492;11.548;2022-07-22T08:33:35;30.40;86.60
31391;DHT22;18022;45.492;11.548;2022-07-22T08:36:01;30.50;86.10
31391;DHT22;18022;45.492;11.548;2022-07-22T08:38:27;30.50;85.10
31391;DHT22;18022;45.492;11.548;2022-07-22T08:40:55;30.60;84.50
31391;DHT22;18022;45.492;11.548;2022-07-22T08:43:21;30.70;83.50
31391;DHT22;18022;45.492;11.548;2022-07-22T08:45:47;30.80;85.00
31391;DHT22;18022;45.492;11.548;2022-07-22T08:48:14;30.90;85.50
31391;DHT22;18022;45.492;11.548;2022-07-22T08:50:40;30.90;83.30
31391;DHT22;18022;45.492;11.548;2022-07-22T08:53:09;31.00;84.60
31391;DHT22;18022;45.492;11.548;2022-07-22T08:55:41;31.10;84.60
31391;DHT22;18022;45.492;11.548;2022-07-22T08:58:07;31.30;84.80
31391;DHT22;18022;45.492;11.548;2022-07-22T09:00:32;31.40;84.20
31391;DHT22;18022;45.492;11.548;2022-07-22T09:02:58;31.30;84.40
31391;DHT22;18022;45.492;11.548;2022-07-22T09:05:33;31.40;85.60
31391;DHT22;18022;45.492;11.548;2022-07-22T09:07:59;31.50;84.80
31391;DHT22;18022;45.492;11.548;2022-07-22T09:10:30;31.50;82.90
31391;DHT22;18022;45.492;11.548;2022-07-22T09:12:59;31.70;82.80
31391;DHT22;18022;45.492;11.548;2022-07-22T09:17:56;31.80;82.90
31391;DHT22;18022;45.492;11.548;2022-07-22T09:20:22;31.90;81.40
31391;DHT22;18022;45.492;11.548;2022-07-22T09:22:48;32.00;81.80
31391;DHT22;18022;45.492;11.548;2022-07-22T09:27:47;32.30;83.00
31391;DHT22;18022;45.492;11.548;2022-07-22T09:30:19;32.40;81.80
31391;DHT22;18022;45.492;11.548;2022-07-22T09:32:46;32.40;81.30
31391;DHT22;18022;45.492;11.548;2022-07-22T09:35:12;32.40;81.70
31391;DHT22;18022;45.492;11.548;2022-07-22T09:37:57;32.60;80.00
31391;DHT22;18022;45.492;11.548;2022-07-22T09:40:28;32.60;79.40
31391;DHT22;18022;45.492;11.548;2022-07-22T09:42:57;32.60;79.90
31391;DHT22;18022;45.492;11.548;2022-07-22T09:45:26;32.70;78.20
31391;DHT22;18022;45.492;11.548;2022-07-22T09:47:55;32.60;77.50
31391;DHT22;18022;45.492;11.548;2022-07-22T09:50:26;32.70;78.70
31391;DHT22;18022;45.492;11.548;2022-07-22T09:52:54;32.80;79.10
31391;DHT22;18022;45.492;11.548;2022-07-22T09:55:22;33.00;78.20
31391;DHT22;18022;45.492;11.548;2022-07-22T09:57:50;33.10;76.20
31391;DHT22;18022;45.492;11.548;2022-07-22T10:00:22;33.10;76.40
31391;DHT22;18022;45.492;11.548;2022-07-22T10:02:53;32.80;78.40
31391;DHT22;18022;45.492;11.548;2022-07-22T10:05:28;32.60;79.60
31391;DHT22;18022;45.492;11.548;2022-07-22T10:07:55;32.60;77.40
31391;DHT22;18022;45.492;11.548;2022-07-22T10:10:26;32.70;77.60
31391;DHT22;18022;45.492;11.548;2022-07-22T10:12:55;32.70;79.70
31391;DHT22;18022;45.492;11.548;2022-07-22T10:15:23;32.60;78.30
31391;DHT22;18022;45.492;11.548;2022-07-22T10:17:51;32.60;78.80
31391;DHT22;18022;45.492;11.548;2022-07-22T10:20:22;32.80;78.00
31391;DHT22;18022;45.492;11.548;2022-07-22T10:22:57;33.00;73.60
31391;DHT22;18022;45.492;11.548;2022-07-22T10:25:26;33.00;74.20
31391;DHT22;18022;45.492;11.548;2022-07-22T10:28:03;33.30;74.90
31391;DHT22;18022;45.492;11.548;2022-07-22T10:30:32;33.60;75.10
31391;DHT22;18022;45.492;11.548;2022-07-22T10:33:13;33.70;74.10
31391;DHT22;18022;45.492;11.548;2022-07-22T10:36:02;33.60;78.30
31391;DHT22;18022;45.492;11.548;2022-07-22T10:38:29;33.40;80.60
31391;DHT22;18022;45.492;11.548;2022-07-22T10:43:30;33.60;74.90
31391;DHT22;18022;45.492;11.548;2022-07-22T10:45:58;33.50;75.20
31391;DHT22;18022;45.492;11.548;2022-07-22T10:51:19;33.80;79.90
31391;DHT22;18022;45.492;11.548;2022-07-22T10:59:09;34.20;74.90
31391;DHT22;18022;45.492;11.548;2022-07-22T11:01:41;34.20;75.60
31391;DHT22;18022;45.492;11.548;2022-07-22T11:04:26;34.30;74.40
31391;DHT22;18022;45.492;11.548;2022-07-22T11:06:57;34.50;75.90
31391;DHT22;18022;45.492;11.548;2022-07-22T11:09:31;34.30;75.60
31391;DHT22;18022;45.492;11.548;2022-07-22T11:11:57;34.20;75.20
31391;DHT22;18022;45.492;11.548;2022-07-22T11:14:26;34.30;74.40
31391;DHT22;18022;45.492;11.548;2022-07-22T11:16:55;34.40;72.60
31391;DHT22;18022;45.492;11.548;2022-07-22T11:19:23;34.50;72.30
31391;DHT22;18022;45.492;11.548;2022-07-22T11:21:51;34.50;71.80
31391;DHT22;18022;45.492;11.548;2022-07-22T11:24:18;34.40;73.90
31391;DHT22;18022;45.492;11.548;2022-07-22T11:26:51;34.40;74.80
31391;DHT22;18022;45.492;11.548;2022-07-22T11:29:26;34.70;72.50
31391;DHT22;18022;45.492;11.548;2022-07-22T11:31:54;34.90;72.60
31391;DHT22;18022;45.492;11.548;2022-07-22T11:34:20;34.90;71.80
31391;DHT22;18022;45.492;11.548;2022-07-22T11:36:48;34.80;74.70
31391;DHT22;18022;45.492;11.548;2022-07-22T11:39:17;34.70;75.90
31391;DHT22;18022;45.492;11.548;2022-07-22T11:41:44;34.90;71.00
31391;DHT22;18022;45.492;11.548;2022-07-22T11:44:10;35.00;72.70
31391;DHT22;18022;45.492;11.548;2022-07-22T11:46:41;35.10;74.10
31391;DHT22;18022;45.492;11.548;2022-07-22T11:49:08;34.90;73.40
31391;DHT22;18022;45.492;11.548;2022-07-22T11:51:36;34.80;75.80
31391;DHT22;18022;45.492;11.548;2022-07-22T11:54:03;35.00;74.30
31391;DHT22;18022;45.492;11.548;2022-07-22T11:56:29;35.10;72.50
31391;DHT22;18022;45.492;11.548;2022-07-22T11:58:55;35.10;72.80
31391;DHT22;18022;45.492;11.548;2022-07-22T12:01:29;34.90;74.00
31391;DHT22;18022;45.492;11.548;2022-07-22T12:03:58;34.90;75.00
31391;DHT22;18022;45.492;11.548;2022-07-22T12:06:26;35.20;72.50
31391;DHT22;18022;45.492;11.548;2022-07-22T12:08:55;35.20;72.20
31391;DHT22;18022;45.492;11.548;2022-07-22T12:11:24;35.20;75.90
31391;DHT22;18022;45.492;11.548;2022-07-22T12:13:51;35.10;75.10
31391;DHT22;18022;45.492;11.548;2022-07-22T12:16:25;35.10;74.60
31391;DHT22;18022;45.492;11.548;2022-07-22T12:19:06;35.00;77.80
31391;DHT22;18022;45.492;11.548;2022-07-22T12:27:04;35.40;74.10
31391;DHT22;18022;45.492;11.548;2022-07-22T12:29:45;35.50;75.50
31391;DHT22;18022;45.492;11.548;2022-07-22T12:34:55;35.60;74.70
31391;DHT22;18022;45.492;11.548;2022-07-22T12:37:23;35.40;74.90
31391;DHT22;18022;45.492;11.548;2022-07-22T12:42:23;35.40;72.60
31391;DHT22;18022;45.492;11.548;2022-07-22T12:45:07;35.60;72.20
31391;DHT22;18022;45.492;11.548;2022-07-22T12:50:24;35.40;74.00
31391;DHT22;18022;45.492;11.548;2022-07-22T12:52:55;35.50;74.70
31391;DHT22;18022;45.492;11.548;2022-07-22T12:55:21;35.50;74.90
31391;DHT22;18022;45.492;11.548;2022-07-22T12:57:47;35.50;74.70
31391;DHT22;18022;45.492;11.548;2022-07-22T13:00:27;35.60;75.80
31391;DHT22;18022;45.492;11.548;2022-07-22T13:02:54;35.60;73.10
31391;DHT22;18022;45.492;11.548;2022-07-22T13:05:22;35.70;74.70
31391;DHT22;18022;45.492;11.548;2022-07-22T13:07:48;35.80;72.90
31391;DHT22;18022;45.492;11.548;2022-07-22T13:10:14;35.80;74.20
31391;DHT22;18022;45.492;11.548;2022-07-22T13:12:40;35.80;74.40
31391;DHT22;18022;45.492;11.548;2022-07-22T13:15:07;35.90;72.80
31391;DHT22;18022;45.492;11.548;2022-07-22T13:17:33;35.90;77.30
31391;DHT22;18022;45.492;11.548;2022-07-22T13:19:59;35.80;75.60
31391;DHT22;18022;45.492;11.548;2022-07-22T13:22:25;35.80;75.30
31391;DHT22;18022;45.492;11.548;2022-07-22T13:24:51;35.70;71.30
31391;DHT22;18022;45.492;11.548;2022-07-22T13:27:17;35.80;73.20
31391;DHT22;18022;45.492;11.548;2022-07-22T13:29:43;35.90;73.00
31391;DHT22;18022;45.492;11.548;2022-07-22T13:32:08;35.80;70.80
31391;DHT22;18022;45.492;11.548;2022-07-22T13:34:34;35.90;73.30
31391;DHT22;18022;45.492;11.548;2022-07-22T13:37:01;36.10;73.80
31391;DHT22;18022;45.492;11.548;2022-07-22T13:39:27;36.10;72.80
31391;DHT22;18022;45.492;11.548;2022-07-22T13:41:52;36.10;74.20
31391;DHT22;18022;45.492;11.548;2022-07-22T13:44:18;36.10;73.70
31391;DHT22;18022;45.492;11.548;2022-07-22T13:46:44;36.10;74.10
31391;DHT22;18022;45.492;11.548;2022-07-22T13:49:11;36.00;74.80
31391;DHT22;18022;45.492;11.548;2022-07-22T13:51:37;36.10;76.90
31391;DHT22;18022;45.492;11.548;2022-07-22T13:54:03;36.10;76.10
31391;DHT22;18022;45.492;11.548;2022-07-22T13:56:30;36.10;73.00
31391;DHT22;18022;45.492;11.548;2022-07-22T13:58:58;36.10;74.10
31391;DHT22;18022;45.492;11.548;2022-07-22T14:01:23;36.10;73.50
31391;DHT22;18022;45.492;11.548;2022-07-22T14:03:49;36.10;74.60
31391;DHT22;18022;45.492;11.548;2022-07-22T14:06:15;36.10;75.60
31391;DHT22;18022;45.492;11.548;2022-07-22T14:08:41;36.10;76.80
31391;DHT22;18022;45.492;11.548;2022-07-22T14:11:06;36.10;75.80
31391;DHT22;18022;45.492;11.548;2022-07-22T14:13:32;36.10;74.20
31391;DHT22;18022;45.492;11.548;2022-07-22T14:15:58;36.10;73.40
31391;DHT22;18022;45.492;11.548;2022-07-22T14:18:43;36.10;74.60
31391;DHT22;18022;45.492;11.548;2022-07-22T14:21:09;36.10;74.90
31391;DHT22;18022;45.492;11.548;2022-07-22T14:23:35;36.10;71.80
31391;DHT22;18022;45.492;11.548;2022-07-22T14:26:00;36.10;72.30
31391;DHT22;18022;45.492;11.548;2022-07-22T14:28:26;36.20;73.30
31391;DHT22;18022;45.492;11.548;2022-07-22T14:30:52;36.10;72.70
31391;DHT22;18022;45.492;11.548;2022-07-22T14:33:17;36.30;73.90
31391;DHT22;18022;45.492;11.548;2022-07-22T14:35:43;36.20;71.40
31391;DHT22;18022;45.492;11.548;2022-07-22T14:38:09;36.20;73.30
31391;DHT22;18022;45.492;11.548;2022-07-22T14:40:34;36.10;72.80
31391;DHT22;18022;45.492;11.548;2022-07-22T14:43:00;36.20;73.30
31391;DHT22;18022;45.492;11.548;2022-07-22T14:45:26;36.40;72.90
31391;DHT22;18022;45.492;11.548;2022-07-22T14:47:51;36.40;74.40
31391;DHT22;18022;45.492;11.548;2022-07-22T14:50:17;36.30;72.30
31391;DHT22;18022;45.492;11.548;2022-07-22T14:52:43;36.30;72.00
31391;DHT22;18022;45.492;11.548;2022-07-22T14:55:09;36.20;70.80
31391;DHT22;18022;45.492;11.548;2022-07-22T14:57:34;36.20;72.50
31391;DHT22;18022;45.492;11.548;2022-07-22T15:00:00;36.20;74.10
31391;DHT22;18022;45.492;11.548;2022-07-22T15:02:26;36.10;75.00
31391;DHT22;18022;45.492;11.548;2022-07-22T15:04:52;36.10;72.20
31391;DHT22;18022;45.492;11.548;2022-07-22T15:07:17;36.10;75.00
31391;DHT22;18022;45.492;11.548;2022-07-22T15:09:43;36.10;74.00
31391;DHT22;18022;45.492;11.548;2022-07-22T15:12:09;36.00;74.50
31391;DHT22;18022;45.492;11.548;2022-07-22T15:14:34;36.00;75.60
31391;DHT22;18022;45.492;11.548;2022-07-22T15:17:00;36.00;77.70
31391;DHT22;18022;45.492;11.548;2022-07-22T15:19:26;36.00;76.80
31391;DHT22;18022;45.492;11.548;2022-07-22T15:21:51;36.00;73.40
31391;DHT22;18022;45.492;11.548;2022-07-22T15:24:17;36.00;75.80
31391;DHT22;18022;45.492;11.548;2022-07-22T15:26:43;36.00;76.60
31391;DHT22;18022;45.492;11.548;2022-07-22T15:29:08;35.80;77.70
31391;DHT22;18022;45.492;11.548;2022-07-22T15:31:34;35.80;76.70
31391;DHT22;18022;45.492;11.548;2022-07-22T15:34:00;35.80;74.70
31391;DHT22;18022;45.492;11.548;2022-07-22T15:36:26;35.70;75.20
31391;DHT22;18022;45.492;11.548;2022-07-22T15:38:51;35.60;75.90
31391;DHT22;18022;45.492;11.548;2022-07-22T15:41:17;35.60;77.30